Time;durP1;ratioP1;P1;durP2;ratioP2;P2;SDS_P1;SDS_P2;PMS_P1;PMS_P2;Temp;Humidity;BMP_temperature;BMP_pressure;BME280_temperature;BME280_humidity;BME280_pressure;Samples;Min_cycle;Max_cycle;Signal;HPM_P1;HPM_P2
2022/07/13 00:00:15;;;;;;;3.22;1.80;;;24.30;94.60;;;;;;5094025;28;20407;-73
2022/07/13 00:02:41;;;;;;;1.80;1.70;;;24.30;94.50;;;;;;5093599;28;20055;-74
2022/07/13 00:05:07;;;;;;;3.63;1.80;;;24.30;94.60;;;;;;5093743;28;20080;-74
2022/07/13 00:07:36;;;;;;;3.85;2.10;;;24.30;94.60;;;;;;5075586;28;20104;-74
2022/07/13 00:10:04;;;;;;;2.10;2.00;;;24.30;94.70;;;;;;5093691;28;20107;-74
2022/07/13 00:12:30;;;;;;;1.75;1.65;;;24.30;94.70;;;;;;5093776;28;20058;-73
2022/07/13 00:14:55;;;;;;;4.07;1.80;;;24.20;95.00;;;;;;5093679;28;20059;-74
2022/07/13 00:17:21;;;;;;;1.90;1.75;;;24.20;95.20;;;;;;5093553;28;20023;-74
2022/07/13 00:19:47;;;;;;;2.85;2.20;;;24.20;95.30;;;;;;5093778;28;20490;-74
2022/07/13 00:22:13;;;;;;;2.03;1.90;;;24.20;95.40;;;;;;5093412;28;20475;-74
2022/07/13 00:24:38;;;;;;;2.40;2.00;;;24.20;95.60;;;;;;5093537;28;20051;-74
2022/07/13 00:27:04;;;;;;;1.88;1.75;;;24.20;95.60;;;;;;5093483;28;20107;-73
2022/07/13 00:29:30;;;;;;;2.03;1.90;;;24.20;95.50;;;;;;5093316;28;20493;-74
2022/07/13 00:31:55;;;;;;;1.70;1.60;;;24.20;95.50;;;;;;5093320;28;20026;-73
2022/07/13 00:34:21;;;;;;;2.00;1.83;;;24.20;95.60;;;;;;5093373;28;20016;-74
2022/07/13 00:36:47;;;;;;;3.03;1.92;;;24.10;95.80;;;;;;5093316;28;20059;-74
2022/07/13 00:39:13;;;;;;;4.82;2.03;;;24.10;96.00;;;;;;5093321;28;20020;-74
2022/07/13 00:41:46;;;;;;;2.17;2.00;;;24.10;96.30;;;;;;5093401;28;20028;-74
2022/07/13 00:44:12;;;;;;;2.22;2.10;;;24.10;96.60;;;;;;5093312;28;20483;-74
2022/07/13 00:46:42;;;;;;;2.28;2.08;;;24.20;96.10;;;;;;5074964;28;20030;-73
2022/07/13 00:49:10;;;;;;;2.75;1.77;;;24.00;96.30;;;;;;5093115;28;20020;-73
2022/07/13 00:51:37;;;;;;;2.97;1.73;;;24.00;96.50;;;;;;5093299;28;20099;-73
2022/07/13 00:54:04;;;;;;;2.30;2.10;;;24.00;96.70;;;;;;5093026;28;20047;-73
2022/07/13 00:56:31;;;;;;;2.13;2.03;;;24.00;96.80;;;;;;5094531;28;20153;-74
2022/07/13 00:58:58;;;;;;;3.25;2.05;;;24.00;96.90;;;;;;5097347;28;20028;-73
2022/07/13 01:01:25;;;;;;;1.88;1.77;;;23.90;97.00;;;;;;5078971;28;20047;-74
2022/07/13 01:03:51;;;;;;;2.45;2.17;;;23.90;97.00;;;;;;5097127;28;20036;-74
2022/07/13 01:06:17;;;;;;;3.17;2.00;;;23.90;97.00;;;;;;5097532;28;20039;-74
2022/07/13 01:08:46;;;;;;;2.30;2.20;;;23.90;97.10;;;;;;5078769;28;20028;-73
2022/07/13 01:11:12;;;;;;;2.20;2.10;;;23.80;97.30;;;;;;5097408;28;20518;-73
2022/07/13 01:13:40;;;;;;;2.20;2.10;;;23.60;97.70;;;;;;5096963;28;20020;-73
2022/07/13 01:16:09;;;;;;;2.65;2.10;;;23.60;97.90;;;;;;5096863;28;20471;-74
2022/07/13 01:18:36;;;;;;;3.45;2.50;;;23.60;98.00;;;;;;5078797;28;20023;-73
2022/07/13 01:21:03;;;;;;;2.75;2.58;;;23.60;98.00;;;;;;5097065;28;20027;-74
2022/07/13 01:23:30;;;;;;;2.88;2.50;;;23.70;97.90;;;;;;5096770;28;20024;-74
2022/07/13 01:25:56;;;;;;;2.63;2.33;;;23.70;97.90;;;;;;5096811;28;20022;-73
2022/07/13 01:28:23;;;;;;;2.30;2.20;;;23.60;97.90;;;;;;5078444;28;20026;-73
2022/07/13 01:30:49;;;;;;;3.05;2.85;;;23.60;98.00;;;;;;5096545;28;20032;-74
2022/07/13 01:33:16;;;;;;;3.60;2.80;;;23.60;98.10;;;;;;5096840;28;20013;-73
2022/07/13 01:35:41;;;;;;;3.08;2.85;;;23.60;98.20;;;;;;5096641;28;20042;-73
2022/07/13 01:38:08;;;;;;;2.28;2.17;;;23.50;98.30;;;;;;5096519;28;20024;-74
2022/07/13 01:40:33;;;;;;;3.88;2.53;;;23.50;98.50;;;;;;5096586;28;20028;-74
2022/07/13 01:42:59;;;;;;;2.10;2.00;;;23.40;98.60;;;;;;5096595;28;20035;-73
2022/07/13 01:45:25;;;;;;;2.45;2.35;;;23.40;98.60;;;;;;5078212;28;20502;-73
2022/07/13 01:47:53;;;;;;;2.70;2.50;;;23.40;98.90;;;;;;5096326;28;20157;-73
2022/07/13 01:50:21;;;;;;;2.80;2.60;;;23.30;99.00;;;;;;5096302;28;20024;-73
2022/07/13 01:52:47;;;;;;;2.85;2.65;;;23.20;99.10;;;;;;5078092;28;20477;-73
2022/07/13 01:55:14;;;;;;;2.67;2.53;;;23.20;99.20;;;;;;5096165;28;20017;-73
2022/07/13 01:57:40;;;;;;;2.47;2.35;;;23.20;99.20;;;;;;5096218;28;20056;-73
2022/07/13 02:00:15;;;;;;;4.15;2.60;;;23.10;99.30;;;;;;5096199;28;20439;-74
2022/07/13 02:02:42;;;;;;;2.90;2.70;;;23.20;99.50;;;;;;5096030;28;20051;-73
2022/07/13 02:05:11;;;;;;;2.47;2.38;;;23.20;99.20;;;;;;5096069;28;20024;-73
2022/07/13 02:07:37;;;;;;;3.28;2.53;;;23.20;99.30;;;;;;5095342;28;20031;-74
2022/07/13 02:10:05;;;;;;;3.65;2.88;;;23.20;99.30;;;;;;5095773;28;20123;-74
2022/07/13 02:12:31;;;;;;;2.67;2.47;;;23.20;99.20;;;;;;5095998;28;20050;-74
2022/07/13 02:14:56;;;;;;;2.40;2.30;;;23.20;99.20;;;;;;5096162;28;20035;-74
2022/07/13 02:17:22;;;;;;;2.50;2.40;;;23.20;99.20;;;;;;5095775;28;20027;-73
2022/07/13 02:19:48;;;;;;;2.50;2.30;;;23.20;99.30;;;;;;5095874;28;20031;-74
2022/07/13 02:22:14;;;;;;;2.83;2.63;;;23.10;99.30;;;;;;5077675;28;20021;-73
2022/07/13 02:24:39;;;;;;;2.50;2.40;;;23.20;99.30;;;;;;5095785;28;20024;-73
2022/07/13 02:27:05;;;;;;;5.65;3.10;;;23.20;99.30;;;;;;5095850;28;20077;-73
2022/07/13 02:29:31;;;;;;;2.53;2.30;;;23.10;99.40;;;;;;5095584;28;20510;-73
2022/07/13 02:31:57;;;;;;;2.85;2.65;;;23.20;99.40;;;;;;5095691;28;20021;-73
2022/07/13 02:34:27;;;;;;;2.55;2.40;;;23.10;99.30;;;;;;5095421;28;20598;-73
2022/07/13 02:36:53;;;;;;;3.10;2.70;;;23.20;99.30;;;;;;5077329;28;20477;-74
2022/07/13 02:39:20;;;;;;;2.60;2.40;;;23.20;99.20;;;;;;5077099;28;20032;-73
2022/07/13 02:41:45;;;;;;;2.55;2.35;;;23.20;99.20;;;;;;5077191;28;20020;-73
2022/07/13 02:44:11;;;;;;;2.78;2.60;;;23.10;99.20;;;;;;5095392;28;20035;-73
2022/07/13 02:46:37;;;;;;;4.25;2.97;;;23.10;99.20;;;;;;5095319;28;20052;-74
2022/07/13 02:49:02;;;;;;;3.88;2.90;;;23.10;99.20;;;;;;5095015;28;20031;-74
2022/07/13 02:51:28;;;;;;;3.50;2.70;;;23.10;99.30;;;;;;5076974;28;20467;-74
2022/07/13 02:53:54;;;;;;;2.88;2.78;;;23.10;99.40;;;;;;5095229;28;20028;-73
2022/07/13 02:56:19;;;;;;;3.85;2.58;;;23.00;99.40;;;;;;5095086;28;20024;-73
2022/07/13 02:58:45;;;;;;;2.97;2.70;;;23.00;99.60;;;;;;5095143;28;20471;-73
2022/07/13 03:01:11;;;;;;;2.85;2.65;;;23.00;99.80;;;;;;5095174;28;20372;-73
2022/07/13 03:03:37;;;;;;;4.68;2.53;;;22.90;99.80;;;;;;5094789;28;20048;-73
2022/07/13 03:06:03;;;;;;;2.70;2.60;;;22.80;99.90;;;;;;5094685;28;20069;-73
2022/07/13 03:08:29;;;;;;;2.42;2.33;;;22.80;99.90;;;;;;5076604;28;20482;-73
2022/07/13 03:10:54;;;;;;;2.70;2.50;;;22.70;99.90;;;;;;5094824;28;20035;-73
2022/07/13 03:13:20;;;;;;;2.75;2.55;;;22.70;99.90;;;;;;5094709;28;20032;-73
2022/07/13 03:15:46;;;;;;;3.45;2.50;;;22.70;99.90;;;;;;5094805;28;20036;-73
2022/07/13 03:18:11;;;;;;;3.15;2.97;;;22.70;99.90;;;;;;5094440;28;20091;-73
2022/07/13 03:20:39;;;;;;;4.25;2.70;;;22.60;99.90;;;;;;5093842;28;20108;-73
2022/07/13 03:23:05;;;;;;;3.00;2.80;;;22.60;99.90;;;;;;5094486;28;20020;-73
2022/07/13 03:25:31;;;;;;;3.00;2.40;;;22.60;99.90;;;;;;5094754;28;20030;-73
2022/07/13 03:27:56;;;;;;;2.63;2.50;;;22.60;99.90;;;;;;5094402;28;20024;-73
2022/07/13 03:30:22;;;;;;;3.13;2.92;;;22.60;99.90;;;;;;5094626;28;20467;-73
2022/07/13 03:32:48;;;;;;;2.53;2.38;;;22.60;99.90;;;;;;5094457;28;20067;-73
2022/07/13 03:35:15;;;;;;;3.40;2.55;;;22.60;99.90;;;;;;5094360;28;20499;-73
2022/07/13 03:37:41;;;;;;;3.15;2.20;;;22.60;99.90;;;;;;5094355;28;20022;-73
2022/07/13 03:40:07;;;;;;;2.40;2.30;;;22.60;99.90;;;;;;5094328;28;20024;-73
2022/07/13 03:42:34;;;;;;;2.60;2.50;;;22.60;99.90;;;;;;5076046;28;20479;-73
2022/07/13 03:45:00;;;;;;;2.97;2.78;;;22.60;99.90;;;;;;5094094;28;20028;-73
2022/07/13 03:47:26;;;;;;;2.55;2.35;;;22.60;99.90;;;;;;5094150;28;20027;-74
2022/07/13 03:49:51;;;;;;;2.70;2.50;;;22.60;99.90;;;;;;5093929;28;20391;-73
2022/07/13 03:52:17;;;;;;;3.35;2.55;;;22.60;99.90;;;;;;5075811;28;20048;-73
2022/07/13 03:54:43;;;;;;;2.90;2.70;;;22.60;99.90;;;;;;5094131;28;20016;-73
2022/07/13 03:57:09;;;;;;;2.60;2.50;;;22.60;99.90;;;;;;5093881;28;20023;-73
2022/07/13 03:59:35;;;;;;;2.70;2.50;;;22.60;99.90;;;;;;5093966;28;20024;-73
2022/07/13 04:02:00;;;;;;;2.47;2.38;;;22.60;99.90;;;;;;5093601;28;20483;-74
2022/07/13 04:04:29;;;;;;;2.45;2.35;;;22.70;99.90;;;;;;5093766;28;20028;-73
2022/07/13 04:06:55;;;;;;;2.47;2.38;;;22.70;99.90;;;;;;5075641;28;20459;-74
2022/07/13 04:09:20;;;;;;;2.85;2.20;;;22.70;99.90;;;;;;5075395;28;20032;-73
2022/07/13 04:11:48;;;;;;;7.13;2.63;;;22.70;99.90;;;;;;5093913;28;20081;-74
2022/07/13 04:14:14;;;;;;;2.80;2.60;;;22.80;99.90;;;;;;5093651;28;20027;-73
2022/07/13 04:16:39;;;;;;;2.38;2.17;;;22.80;99.90;;;;;;5093584;28;20028;-73
2022/07/13 04:19:05;;;;;;;2.85;2.65;;;22.70;99.90;;;;;;5093448;28;20027;-74
2022/07/13 04:21:31;;;;;;;2.70;2.50;;;22.70;99.90;;;;;;5093574;28;20020;-74
2022/07/13 04:23:58;;;;;;;2.30;2.20;;;22.70;99.90;;;;;;5075344;28;20028;-73
2022/07/13 04:26:24;;;;;;;2.83;2.67;;;22.80;99.90;;;;;;5075307;28;20032;-73
2022/07/13 04:28:50;;;;;;;2.90;2.50;;;22.80;99.90;;;;;;5093427;28;20024;-74
2022/07/13 04:31:16;;;;;;;2.28;2.15;;;22.90;99.90;;;;;;5093285;28;20031;-73
2022/07/13 04:33:41;;;;;;;2.60;2.40;;;22.90;99.90;;;;;;5093350;28;20020;-74
2022/07/13 04:36:08;;;;;;;3.35;2.42;;;23.00;99.90;;;;;;5075314;28;20024;-73
2022/07/13 04:38:34;;;;;;;3.08;2.67;;;23.00;99.90;;;;;;5093474;28;20102;-74
2022/07/13 04:41:00;;;;;;;2.67;2.47;;;23.00;99.90;;;;;;5093329;28;20052;-74
2022/07/13 04:43:26;;;;;;;3.10;2.80;;;23.00;99.90;;;;;;5093104;28;20047;-74
2022/07/13 04:45:53;;;;;;;2.35;2.20;;;23.10;99.90;;;;;;5075083;28;20043;-74
2022/07/13 04:48:18;;;;;;;2.63;2.47;;;23.10;99.90;;;;;;5093246;28;20391;-74
2022/07/13 04:50:44;;;;;;;2.60;2.40;;;23.10;99.90;;;;;;5075030;28;20028;-74
2022/07/13 04:53:10;;;;;;;2.72;2.53;;;23.10;99.90;;;;;;5093070;28;20094;-74
2022/07/13 04:55:39;;;;;;;2.25;2.15;;;23.00;99.90;;;;;;5075027;28;20471;-73
2022/07/13 04:58:07;;;;;;;2.33;2.20;;;23.10;99.90;;;;;;5093323;28;20097;-74
2022/07/13 05:00:34;;;;;;;3.70;2.50;;;23.10;99.90;;;;;;5093015;28;20051;-74
2022/07/13 05:03:00;;;;;;;2.20;2.10;;;23.20;99.90;;;;;;5092862;28;20499;-74
2022/07/13 05:05:28;;;;;;;5.88;3.22;;;23.30;99.90;;;;;;5074923;28;20031;-74
2022/07/13 05:07:54;;;;;;;2.97;2.38;;;23.30;99.90;;;;;;5093073;28;20064;-74
2022/07/13 05:10:20;;;;;;;4.47;2.97;;;23.30;99.90;;;;;;5074790;28;20036;-73
2022/07/13 05:12:46;;;;;;;2.25;2.13;;;23.30;99.90;;;;;;5093109;28;20082;-74
2022/07/13 05:15:11;;;;;;;2.45;2.20;;;23.40;99.90;;;;;;5093129;28;20099;-73
2022/07/13 05:17:37;;;;;;;2.40;2.20;;;23.50;99.80;;;;;;5092907;28;20058;-73
2022/07/13 05:20:04;;;;;;;4.20;2.53;;;23.50;99.70;;;;;;5092938;28;20025;-74
2022/07/13 05:22:30;;;;;;;2.80;2.60;;;23.50;99.80;;;;;;5074753;28;20032;-74
2022/07/13 05:24:56;;;;;;;12.18;2.63;;;23.60;99.80;;;;;;5092716;28;20074;-74
2022/07/13 05:27:23;;;;;;;2.10;2.00;;;23.60;99.40;;;;;;5074689;28;20391;-74
2022/07/13 05:29:50;;;;;;;4.50;2.35;;;23.60;99.40;;;;;;5074497;28;20020;-74
2022/07/13 05:32:16;;;;;;;2.90;2.70;;;23.60;99.30;;;;;;5092722;28;20031;-74
2022/07/13 05:34:42;;;;;;;4.28;2.63;;;23.70;99.20;;;;;;5092790;28;20035;-74
2022/07/13 05:37:07;;;;;;;3.72;2.50;;;23.70;99.20;;;;;;5092771;28;20036;-74
2022/07/13 05:39:33;;;;;;;3.47;2.65;;;23.70;99.60;;;;;;5074520;28;20031;-74
2022/07/13 05:41:59;;;;;;;2.65;2.45;;;23.80;99.50;;;;;;5092979;28;20024;-74
2022/07/13 05:44:24;;;;;;;2.80;2.60;;;23.90;99.40;;;;;;5096454;28;20153;-74
2022/07/13 05:46:50;;;;;;;2.47;2.28;;;23.90;99.00;;;;;;5096488;28;20438;-74
2022/07/13 05:49:16;;;;;;;2.92;2.45;;;23.90;98.90;;;;;;5096424;28;20016;-74
2022/07/13 05:51:42;;;;;;;2.85;2.72;;;24.00;98.50;;;;;;5096270;28;20103;-74
2022/07/13 05:54:08;;;;;;;2.75;2.55;;;24.00;98.50;;;;;;5096557;28;20020;-74
2022/07/13 05:56:34;;;;;;;5.03;2.40;;;24.10;98.90;;;;;;5096662;28;20090;-75
2022/07/13 05:59:00;;;;;;;3.55;2.33;;;24.10;98.60;;;;;;5096242;28;20024;-75
2022/07/13 06:01:26;;;;;;;2.55;2.40;;;24.20;99.20;;;;;;5096424;28;20031;-75
2022/07/13 06:03:51;;;;;;;4.05;2.60;;;24.20;98.70;;;;;;5096106;28;20517;-75
2022/07/13 06:06:17;;;;;;;2.78;2.55;;;24.40;98.80;;;;;;5096100;28;20031;-75
2022/07/13 06:08:43;;;;;;;2.30;2.20;;;24.40;98.20;;;;;;5095927;28;20019;-75
2022/07/13 06:11:08;;;;;;;2.22;2.08;;;24.40;98.40;;;;;;5096124;28;20503;-74
2022/07/13 06:13:34;;;;;;;3.47;2.17;;;24.50;98.90;;;;;;5096017;28;20424;-75
2022/07/13 06:16:01;;;;;;;2.55;2.22;;;24.50;98.90;;;;;;5096086;28;20023;-75
2022/07/13 06:18:27;;;;;;;2.00;1.85;;;24.60;98.80;;;;;;5095882;28;20020;-75
2022/07/13 06:20:53;;;;;;;2.30;2.10;;;24.60;98.80;;;;;;5095997;28;20076;-76
2022/07/13 06:23:20;;;;;;;2.28;2.10;;;24.60;99.00;;;;;;5095804;28;20089;-75
2022/07/13 06:25:46;;;;;;;5.93;2.33;;;24.70;98.60;;;;;;5095692;28;20082;-75
2022/07/13 06:28:12;;;;;;;3.75;2.53;;;24.70;98.50;;;;;;5095636;28;20031;-75
2022/07/13 06:30:38;;;;;;;4.50;2.33;;;24.70;98.30;;;;;;5095407;28;20020;-75
2022/07/13 06:33:04;;;;;;;4.68;2.03;;;24.80;98.30;;;;;;5095758;28;20103;-75
2022/07/13 06:35:31;;;;;;;2.20;2.03;;;24.70;97.40;;;;;;5095501;28;20103;-75
2022/07/13 06:37:58;;;;;;;3.00;2.63;;;24.70;97.60;;;;;;5095441;28;20039;-75
2022/07/13 06:40:24;;;;;;;2.30;1.98;;;24.80;97.70;;;;;;5095423;28;20020;-75
2022/07/13 06:42:50;;;;;;;2.45;2.15;;;24.80;97.40;;;;;;5095292;28;20050;-75
2022/07/13 06:45:16;;;;;;;2.25;2.08;;;24.80;97.00;;;;;;5077174;28;20043;-75
2022/07/13 06:47:42;;;;;;;2.58;2.38;;;24.90;97.00;;;;;;5095400;28;20059;-75
2022/07/13 06:50:09;;;;;;;3.38;2.20;;;24.90;97.00;;;;;;5095301;28;20055;-75
2022/07/13 06:52:37;;;;;;;2.70;2.55;;;24.90;96.70;;;;;;5095397;28;20098;-75
2022/07/13 06:55:04;;;;;;;3.20;2.10;;;24.90;97.10;;;;;;5095062;28;20016;-75
2022/07/13 06:57:30;;;;;;;1.92;1.83;;;25.00;97.10;;;;;;5094741;28;20020;-75
2022/07/13 06:59:56;;;;;;;3.97;1.90;;;25.00;97.10;;;;;;5095019;28;20157;-75
2022/07/13 07:02:22;;;;;;;2.80;2.20;;;25.00;95.00;;;;;;5094696;28;20381;-75
2022/07/13 07:04:48;;;;;;;1.90;1.80;;;25.00;95.20;;;;;;5094794;28;20099;-75
2022/07/13 07:07:13;;;;;;;2.05;1.95;;;25.00;94.90;;;;;;5094687;28;20028;-76
2022/07/13 07:09:39;;;;;;;3.53;1.60;;;25.00;95.10;;;;;;5094603;28;20036;-76
2022/07/13 07:12:05;;;;;;;2.53;2.33;;;25.00;94.40;;;;;;5094657;28;20057;-75
2022/07/13 07:14:32;;;;;;;3.75;2.25;;;25.10;94.80;;;;;;5094602;28;20097;-75
2022/07/13 07:16:59;;;;;;;3.92;2.10;;;25.10;94.50;;;;;;5094614;28;20016;-76
2022/07/13 07:19:25;;;;;;;2.42;2.22;;;25.10;93.80;;;;;;5094499;28;20106;-75
2022/07/13 07:21:50;;;;;;;2.90;2.60;;;25.10;94.70;;;;;;5094478;28;20067;-76
2022/07/13 07:24:16;;;;;;;2.30;2.10;;;25.20;95.10;;;;;;5094443;28;20031;-75
2022/07/13 07:26:42;;;;;;;5.53;2.08;;;25.10;94.60;;;;;;5094380;28;20028;-75
2022/07/13 07:29:08;;;;;;;3.20;2.13;;;25.20;95.20;;;;;;5094370;28;20081;-75
2022/07/13 07:31:34;;;;;;;4.07;2.15;;;25.30;93.60;;;;;;5076232;28;20028;-75
2022/07/13 07:34:00;;;;;;;3.30;2.00;;;25.30;93.20;;;;;;5094417;28;20042;-76
2022/07/13 07:36:26;;;;;;;2.10;1.92;;;25.30;93.20;;;;;;5094373;28;20016;-75
2022/07/13 07:38:51;;;;;;;2.28;2.03;;;25.30;93.30;;;;;;5094231;28;20023;-75
2022/07/13 07:41:17;;;;;;;2.65;2.38;;;25.30;93.60;;;;;;5094405;28;20068;-74
2022/07/13 07:43:43;;;;;;;2.92;1.80;;;25.40;93.00;;;;;;5105441;28;20015;-75
2022/07/13 07:46:08;;;;;;;2.05;1.85;;;25.40;92.70;;;;;;5114612;28;20432;-74
2022/07/13 07:48:34;;;;;;;4.72;2.08;;;25.50;92.30;;;;;;5114380;28;20016;-74
2022/07/13 07:51:02;;;;;;;1.85;1.75;;;25.50;91.60;;;;;;5114282;28;20026;-75
2022/07/13 07:53:28;;;;;;;2.00;1.88;;;25.60;91.80;;;;;;5114120;28;20024;-73
2022/07/13 07:55:53;;;;;;;1.88;1.75;;;25.70;92.40;;;;;;5114522;28;20536;-74
2022/07/13 07:58:19;;;;;;;3.92;1.92;;;25.80;92.40;;;;;;5114235;28;20077;-74
2022/07/13 08:00:46;;;;;;;2.95;2.00;;;25.80;92.50;;;;;;5114171;28;20055;-74
2022/07/13 08:03:12;;;;;;;4.82;1.83;;;25.90;92.10;;;;;;5113698;28;20046;-74
2022/07/13 08:05:38;;;;;;;1.95;1.85;;;25.90;92.30;;;;;;5095376;28;20039;-74
2022/07/13 08:08:04;;;;;;;2.35;2.15;;;26.00;91.00;;;;;;5113965;28;20028;-74
2022/07/13 08:10:30;;;;;;;2.05;1.88;;;25.90;90.50;;;;;;5113967;28;20110;-74
2022/07/13 08:12:59;;;;;;;2.17;2.00;;;26.00;90.70;;;;;;5113717;28;20019;-74
2022/07/13 08:15:26;;;;;;;4.55;2.55;;;26.10;90.20;;;;;;5095598;28;20073;-74
2022/07/13 08:17:56;;;;;;;7.00;1.60;;;25.90;90.10;;;;;;5113940;28;20023;-74
2022/07/13 08:20:21;;;;;;;3.33;2.17;;;25.90;90.50;;;;;;5095570;28;20024;-74
2022/07/13 08:22:47;;;;;;;1.73;1.63;;;26.20;89.20;;;;;;5095105;28;20114;-74
2022/07/13 08:25:13;;;;;;;5.70;1.67;;;26.20;88.50;;;;;;5114053;28;20019;-74
2022/07/13 08:27:38;;;;;;;2.20;1.50;;;26.30;85.20;;;;;;5095478;28;20391;-74
2022/07/13 08:30:05;;;;;;;1.80;1.70;;;26.40;84.70;;;;;;5113791;28;20028;-74
2022/07/13 08:32:31;;;;;;;3.30;1.45;;;26.50;86.00;;;;;;5113636;28;20106;-74
2022/07/13 08:40:27;;;;;;;1.73;1.63;;;26.40;83.40;;;;;;5113514;28;20034;-74
2022/07/13 08:42:53;;;;;;;2.63;1.60;;;26.40;83.00;;;;;;5113439;28;20019;-74
2022/07/13 08:45:19;;;;;;;3.13;1.70;;;26.40;82.50;;;;;;5113781;28;20066;-74
2022/07/13 08:47:47;;;;;;;7.15;1.60;;;26.40;80.40;;;;;;5113467;28;20061;-74
2022/07/13 08:50:13;;;;;;;1.77;1.60;;;26.50;84.20;;;;;;5113534;28;20050;-74
2022/07/13 08:52:40;;;;;;;1.67;1.58;;;26.50;84.00;;;;;;5113283;28;20401;-74
2022/07/13 08:55:08;;;;;;;1.58;1.30;;;26.60;82.30;;;;;;5113655;28;20027;-74
2022/07/13 08:57:38;;;;;;;3.75;1.77;;;26.60;85.00;;;;;;5112906;28;20012;-74
2022/07/13 09:00:11;;;;;;;3.30;1.60;;;26.60;85.70;;;;;;5106577;28;20389;-74
2022/07/13 09:02:38;;;;;;;1.52;1.42;;;26.60;86.60;;;;;;5086979;28;20130;-73
2022/07/13 09:05:06;;;;;;;1.75;1.40;;;26.70;86.40;;;;;;5089066;28;20107;-74
2022/07/13 09:07:33;;;;;;;1.50;1.40;;;26.70;84.50;;;;;;5088046;28;20304;-74
2022/07/13 09:10:01;;;;;;;2.40;1.58;;;26.80;84.60;;;;;;5088427;28;20055;-75
2022/07/13 09:12:28;;;;;;;1.48;1.38;;;26.70;84.20;;;;;;5088165;28;20025;-74
2022/07/13 09:15:04;;;;;;;1.67;1.58;;;26.90;85.00;;;;;;5089548;28;20029;-73
2022/07/13 09:17:36;;;;;;;1.42;1.30;;;27.10;83.50;;;;;;5090912;28;20749;-73
2022/07/13 09:20:22;;;;;;;1.58;1.40;;;27.20;83.70;;;;;;5093026;28;20084;-73
2022/07/13 09:22:52;;;;;;;2.95;1.35;;;27.20;83.20;;;;;;5093862;28;20059;-74
2022/07/13 09:25:32;;;;;;;1.77;1.67;;;27.30;83.60;;;;;;5092122;28;20028;-73
2022/07/13 09:28:03;;;;;;;2.25;1.40;;;27.20;80.60;;;;;;5093030;28;20437;-74
2022/07/13 09:30:29;;;;;;;2.05;1.73;;;27.20;79.90;;;;;;5093519;28;20450;-75
2022/07/13 09:32:57;;;;;;;1.52;1.42;;;27.20;79.80;;;;;;5093764;28;20044;-75
2022/07/13 09:35:41;;;;;;;3.50;1.33;;;27.20;78.50;;;;;;5092175;28;20631;-74
2022/07/13 09:38:07;;;;;;;1.80;1.58;;;27.30;77.90;;;;;;5092623;28;20028;-73
2022/07/13 09:40:33;;;;;;;1.52;1.42;;;27.40;79.10;;;;;;5093463;28;20035;-73
2022/07/13 09:48:27;;;;;;;1.38;1.10;;;27.70;78.40;;;;;;5093016;28;20125;-74
2022/07/13 09:50:57;;;;;;;1.92;1.42;;;27.80;78.10;;;;;;5091871;28;20471;-75
2022/07/13 09:53:23;;;;;;;1.80;1.30;;;27.80;78.60;;;;;;5093583;28;20048;-74
2022/07/13 09:55:51;;;;;;;2.30;1.52;;;27.70;75.80;;;;;;5092822;28;20097;-74
2022/07/13 09:58:21;;;;;;;1.30;1.20;;;27.80;75.40;;;;;;5093171;28;20020;-75
2022/07/13 10:00:48;;;;;;;1.48;1.42;;;27.70;73.50;;;;;;5091774;28;20036;-74
2022/07/13 10:03:14;;;;;;;2.28;1.58;;;27.80;76.80;;;;;;5104094;28;20051;-73
2022/07/13 10:05:40;;;;;;;3.20;2.45;;;27.90;75.50;;;;;;5113930;28;20072;-73
2022/07/13 10:08:08;;;;;;;2.17;1.50;;;27.90;74.70;;;;;;5116129;28;20024;-74
2022/07/13 10:10:36;;;;;;;2.42;1.17;;;28.00;77.10;;;;;;5116357;28;20371;-73
2022/07/13 10:13:05;;;;;;;1.67;1.58;;;28.20;76.90;;;;;;5115975;28;20020;-73
2022/07/13 10:15:32;;;;;;;1.70;1.60;;;28.30;75.70;;;;;;5116255;28;20026;-73
2022/07/13 10:18:00;;;;;;;1.85;1.75;;;28.30;76.20;;;;;;5097951;28;20102;-75
2022/07/13 10:20:28;;;;;;;2.25;1.90;;;28.50;74.60;;;;;;5097828;28;20034;-75
2022/07/13 10:22:54;;;;;;;2.33;2.00;;;28.50;73.70;;;;;;5116145;28;20467;-74
2022/07/13 10:25:24;;;;;;;1.60;1.50;;;28.40;75.20;;;;;;5116007;28;20041;-75
2022/07/13 10:28:04;;;;;;;1.83;1.58;;;28.40;75.50;;;;;;5115464;28;20027;-75
2022/07/13 10:30:30;;;;;;;6.55;1.95;;;28.50;75.90;;;;;;5116070;28;20516;-74
2022/07/13 10:33:20;;;;;;;1.83;1.60;;;28.60;75.90;;;;;;5097555;28;20016;-75
2022/07/13 10:35:51;;;;;;;3.28;2.95;;;28.70;76.90;;;;;;5116127;28;20027;-76
2022/07/13 10:38:22;;;;;;;2.30;2.10;;;28.70;74.90;;;;;;5115818;28;20023;-76
2022/07/13 10:40:49;;;;;;;1.92;1.52;;;28.60;73.30;;;;;;5111857;28;20019;-76
2022/07/13 10:43:16;;;;;;;2.40;1.73;;;28.80;75.70;;;;;;5111590;28;20031;-73
2022/07/13 10:45:48;;;;;;;3.45;2.00;;;28.80;72.40;;;;;;5110551;28;20112;-73
2022/07/13 10:48:18;;;;;;;4.30;1.90;;;28.90;71.80;;;;;;5111085;28;20073;-73
2022/07/13 10:50:49;;;;;;;1.70;1.60;;;29.00;72.90;;;;;;5111432;28;20444;-73
2022/07/13 10:53:16;;;;;;;2.33;2.13;;;29.00;70.50;;;;;;5110603;28;20024;-73
2022/07/13 10:55:48;;;;;;;2.00;1.90;;;29.10;72.20;;;;;;5110603;28;20031;-73
2022/07/13 10:58:34;;;;;;;1.85;1.75;;;29.20;71.70;;;;;;5111199;28;20099;-73
2022/07/13 11:01:07;;;;;;;2.03;1.90;;;29.40;68.90;;;;;;5110133;28;20080;-73
2022/07/13 11:03:43;;;;;;;1.95;1.85;;;29.40;69.40;;;;;;5110511;28;20051;-73
2022/07/13 11:06:20;;;;;;;2.25;2.08;;;29.50;71.60;;;;;;5092830;28;20437;-73
2022/07/13 11:09:06;;;;;;;1.92;1.67;;;29.60;69.80;;;;;;5092775;28;20051;-73
2022/07/13 11:11:32;;;;;;;2.13;1.95;;;29.70;70.00;;;;;;5110046;28;20106;-73
2022/07/13 11:13:58;;;;;;;1.95;1.85;;;29.90;69.20;;;;;;5092525;28;20055;-73
2022/07/13 11:16:47;;;;;;;2.25;1.90;;;30.00;66.60;;;;;;5110369;28;20027;-73
2022/07/13 11:19:14;;;;;;;9.45;1.90;;;29.90;66.70;;;;;;5110914;28;20080;-73
2022/07/13 11:22:08;;;;;;;3.10;1.90;;;29.80;65.40;;;;;;5110027;28;20106;-73
2022/07/13 11:27:37;;;;;;;1.77;1.67;;;29.90;64.90;;;;;;5110319;28;20513;-73
2022/07/13 11:30:04;;;;;;;2.00;1.90;;;29.70;64.60;;;;;;5091579;28;20035;-73
2022/07/13 11:32:30;;;;;;;2.10;1.88;;;29.90;65.20;;;;;;5110543;28;20026;-73
2022/07/13 11:34:56;;;;;;;4.32;1.98;;;29.90;65.00;;;;;;5110640;28;20020;-73
2022/07/13 11:37:23;;;;;;;1.95;1.83;;;30.00;66.00;;;;;;5114591;28;20024;-73
2022/07/13 11:39:48;;;;;;;1.95;1.85;;;30.20;65.10;;;;;;5095617;28;20023;-73
2022/07/13 11:42:14;;;;;;;5.40;2.10;;;30.40;65.10;;;;;;5114720;28;20447;-73
2022/07/13 11:44:40;;;;;;;1.85;1.75;;;30.50;63.90;;;;;;5114548;28;20106;-73
2022/07/13 11:47:12;;;;;;;3.25;1.80;;;30.50;64.30;;;;;;5096108;28;20055;-73
2022/07/13 11:49:48;;;;;;;2.45;1.60;;;30.50;62.80;;;;;;5113580;28;20431;-76
2022/07/13 11:52:26;;;;;;;6.75;2.00;;;30.50;63.50;;;;;;5071595;28;20343;-76
2022/07/13 11:54:58;;;;;;;2.25;1.83;;;30.60;62.80;;;;;;5071784;28;20426;-75
2022/07/13 11:57:23;;;;;;;;;;;30.80;64.50;;;;;;5089345;28;20020;-75
2022/07/13 11:59:49;;;;;;;2.20;2.00;;;30.90;63.50;;;;;;5089474;28;19910;-75
2022/07/13 12:02:15;;;;;;;2.05;1.85;;;30.90;61.50;;;;;;5071450;28;20606;-75
2022/07/13 12:04:41;;;;;;;1.90;1.80;;;31.00;63.30;;;;;;5070842;28;20033;-75
2022/07/13 12:07:21;;;;;;;5.22;2.33;;;31.20;63.80;;;;;;5071451;28;20491;-76
2022/07/13 12:09:54;;;;;;;2.08;1.83;;;31.50;64.40;;;;;;5089426;28;20059;-76
2022/07/13 12:12:37;;;;;;;6.78;2.05;;;31.60;62.90;;;;;;5093628;28;20030;-75
2022/07/13 12:15:05;;;;;;;3.65;1.58;;;31.60;60.30;;;;;;5093817;28;20020;-73
2022/07/13 12:17:41;;;;;;;1.63;1.40;;;31.60;60.30;;;;;;5093502;28;20028;-73
2022/07/13 12:20:15;;;;;;;2.33;1.70;;;31.60;60.30;;;;;;5093625;28;20027;-73
2022/07/13 12:23:07;;;;;;;1.83;1.65;;;31.60;61.10;;;;;;5093577;28;20020;-73
2022/07/13 12:25:35;;;;;;;1.85;1.75;;;31.60;59.50;;;;;;5092206;28;20081;-73
2022/07/13 12:28:04;;;;;;;1.42;1.42;;;31.80;60.60;;;;;;5089558;28;20031;-73
2022/07/13 12:30:32;;;;;;;2.50;1.95;;;31.80;61.10;;;;;;5088387;28;20066;-73
2022/07/13 12:33:11;;;;;;;1.35;1.30;;;31.90;60.30;;;;;;5070933;28;20036;-73
2022/07/13 12:35:41;;;;;;;5.03;1.92;;;32.10;60.60;;;;;;5089164;28;20016;-73
2022/07/13 12:38:14;;;;;;;2.83;2.40;;;32.20;60.10;;;;;;5089364;28;20540;-73
2022/07/13 12:40:49;;;;;;;1.95;1.85;;;32.20;59.00;;;;;;5088819;28;20024;-73
2022/07/13 12:43:23;;;;;;;2.92;1.45;;;32.30;60.00;;;;;;5092935;28;20034;-74
2022/07/13 12:45:52;;;;;;;2.92;1.70;;;32.30;60.00;;;;;;5108638;28;20027;-73
2022/07/13 12:48:24;;;;;;;2.28;2.03;;;32.40;58.80;;;;;;5108996;28;20023;-73
2022/07/13 12:51:13;;;;;;;6.45;1.95;;;32.40;58.20;;;;;;5091502;28;20534;-74
2022/07/13 12:53:58;;;;;;;2.20;1.70;;;32.40;59.00;;;;;;5115388;28;20124;-74
2022/07/13 12:56:26;;;;;;;3.35;1.77;;;32.50;59.70;;;;;;5115240;28;20016;-74
2022/07/13 12:58:54;;;;;;;3.08;1.92;;;32.60;59.70;;;;;;5115499;28;20020;-74
2022/07/13 13:01:37;;;;;;;3.60;1.85;;;32.70;59.60;;;;;;5116427;28;20024;-74
2022/07/13 13:04:10;;;;;;;1.83;1.73;;;32.60;58.90;;;;;;5094071;28;20132;-73